createdAt,value
2023-02-27T00:00:29.509Z,100.00
2023-02-27T00:02:58.213Z,100.00
2023-02-27T00:05:26.110Z,100.00
2023-02-27T00:07:53.815Z,100.00
2023-02-27T00:10:21.849Z,100.00
2023-02-27T00:12:49.712Z,100.00
2023-02-27T00:15:20.978Z,100.00
2023-02-27T00:17:48.771Z,100.00
2023-02-27T00:20:18.565Z,100.00
2023-02-27T00:22:46.854Z,100.00
2023-02-27T00:25:15.720Z,100.00
2023-02-27T00:27:43.578Z,100.00
2023-02-27T00:30:14.066Z,100.00
2023-02-27T00:32:44.141Z,100.00
2023-02-27T00:35:12.827Z,100.00
2023-02-27T00:37:41.132Z,100.00
2023-02-27T00:40:09.938Z,100.00
2023-02-27T00:42:37.846Z,100.00
2023-02-27T00:45:06.668Z,100.00
2023-02-27T00:47:34.963Z,100.00
2023-02-27T00:50:04.300Z,100.00
2023-02-27T00:52:33.656Z,100.00
2023-02-27T00:55:01.779Z,100.00
2023-02-27T00:57:29.992Z,100.00
2023-02-27T00:59:57.860Z,100.00
2023-02-27T01:02:26.261Z,100.00
2023-02-27T01:04:54.009Z,100.00
2023-02-27T01:07:23.058Z,100.00
2023-02-27T01:09:50.929Z,100.00
2023-02-27T01:12:18.780Z,100.00
2023-02-27T01:14:46.506Z,100.00
2023-02-27T01:17:14.274Z,100.00
2023-02-27T01:19:42.161Z,100.00
2023-02-27T01:22:09.859Z,100.00
2023-02-27T01:24:39.020Z,100.00
2023-02-27T01:27:06.882Z,100.00
2023-02-27T01:29:34.694Z,100.00
2023-02-27T01:32:02.689Z,100.00
2023-02-27T01:34:31.718Z,100.00
2023-02-27T01:37:01.061Z,100.00
2023-02-27T01:39:29.388Z,100.00
2023-02-27T01:41:58.462Z,100.00
2023-02-27T01:44:29.104Z,100.00
2023-02-27T01:46:57.083Z,100.00
2023-02-27T01:49:30.280Z,100.00
2023-02-27T01:52:03.289Z,100.00
2023-02-27T01:54:33.454Z,100.00
2023-02-27T01:57:06.613Z,100.00
2023-02-27T01:59:35.201Z,100.00
2023-02-27T02:02:06.228Z,100.00
2023-02-27T02:04:37.282Z,100.00
2023-02-27T02:07:07.243Z,100.00
2023-02-27T02:09:38.880Z,100.00
2023-02-27T02:12:08.986Z,100.00
2023-02-27T02:14:36.788Z,100.00
2023-02-27T02:17:16.042Z,100.00
2023-02-27T02:20:12.126Z,100.00
2023-02-27T02:23:12.744Z,100.00
2023-02-27T02:26:10.472Z,100.00
2023-02-27T02:29:10.154Z,100.00
2023-02-27T02:32:02.078Z,100.00
2023-02-27T02:34:53.237Z,100.00
2023-02-27T02:38:06.009Z,100.00
2023-02-27T02:40:44.021Z,100.00
2023-02-27T02:43:16.087Z,100.00
2023-02-27T02:45:50.790Z,100.00
2023-02-27T02:48:22.373Z,100.00
2023-02-27T02:50:56.594Z,100.00
2023-02-27T02:53:37.088Z,100.00
2023-02-27T02:56:11.961Z,100.00
2023-02-27T02:58:49.868Z,100.00
2023-02-27T03:01:22.477Z,100.00
2023-02-27T03:03:56.217Z,100.00
2023-02-27T03:06:31.412Z,100.00
2023-02-27T03:09:04.247Z,100.00
2023-02-27T03:11:39.112Z,100.00
2023-02-27T03:14:12.237Z,100.00
2023-02-27T03:16:43.871Z,100.00
2023-02-27T03:19:14.605Z,100.00
2023-02-27T03:21:47.185Z,100.00
2023-02-27T03:24:21.203Z,100.00
2023-02-27T03:26:54.941Z,100.00
2023-02-27T03:29:31.050Z,100.00
2023-02-27T03:32:04.081Z,100.00
2023-02-27T03:34:35.189Z,100.00
2023-02-27T03:37:07.752Z,100.00
2023-02-27T03:39:45.252Z,100.00
2023-02-27T03:42:20.909Z,100.00
2023-02-27T03:44:57.052Z,100.00
2023-02-27T03:47:25.255Z,100.00
2023-02-27T03:49:53.142Z,100.00
2023-02-27T03:52:22.324Z,100.00
2023-02-27T03:54:56.005Z,100.00
2023-02-27T03:57:25.074Z,100.00
2023-02-27T03:59:53.350Z,100.00
2023-02-27T04:02:22.477Z,100.00
2023-02-27T04:04:50.173Z,100.00
2023-02-27T04:07:28.527Z,100.00
2023-02-27T04:10:20.504Z,100.00
2023-02-27T04:13:18.250Z,100.00
2023-02-27T04:16:06.751Z,100.00
2023-02-27T04:18:56.903Z,100.00
2023-02-27T04:21:32.095Z,100.00
2023-02-27T04:24:13.640Z,100.00
2023-02-27T04:26:47.140Z,100.00
2023-02-27T04:29:20.579Z,100.00
2023-02-27T04:31:58.864Z,100.00
2023-02-27T04:34:32.509Z,100.00
2023-02-27T04:37:04.746Z,100.00
2023-02-27T04:39:35.822Z,100.00
2023-02-27T04:42:07.454Z,100.00
2023-02-27T04:44:40.030Z,100.00
2023-02-27T04:47:12.303Z,100.00
2023-02-27T04:49:46.159Z,100.00
2023-02-27T04:52:17.897Z,100.00
2023-02-27T04:54:52.285Z,100.00
2023-02-27T04:57:25.267Z,100.00
2023-02-27T04:59:56.640Z,100.00
2023-02-27T05:02:29.161Z,100.00
2023-02-27T05:05:00.514Z,100.00
2023-02-27T05:07:32.552Z,100.00
2023-02-27T05:10:03.513Z,100.00
2023-02-27T05:12:36.288Z,100.00
2023-02-27T05:15:12.203Z,100.00
2023-02-27T05:17:46.513Z,100.00
2023-02-27T05:20:15.784Z,100.00
2023-02-27T05:22:48.849Z,100.00
2023-02-27T05:25:24.704Z,100.00
2023-02-27T05:27:57.901Z,100.00
2023-02-27T05:30:35.146Z,100.00
2023-02-27T05:33:07.950Z,100.00
2023-02-27T05:35:40.441Z,100.00
2023-02-27T05:38:15.643Z,100.00
2023-02-27T05:40:47.525Z,100.00
2023-02-27T05:43:20.661Z,100.00
2023-02-27T05:45:54.567Z,100.00
2023-02-27T05:48:27.139Z,100.00
2023-02-27T05:50:56.699Z,100.00
2023-02-27T05:53:28.348Z,100.00
2023-02-27T05:55:59.872Z,100.00
2023-02-27T05:58:31.953Z,100.00
2023-02-27T06:01:03.846Z,100.00
2023-02-27T06:03:34.790Z,100.00
2023-02-27T06:06:06.138Z,100.00
2023-02-27T06:08:38.970Z,100.00
2023-02-27T06:11:07.579Z,100.00
2023-02-27T06:13:35.719Z,100.00
2023-02-27T06:16:05.339Z,100.00
2023-02-27T06:18:33.044Z,100.00
2023-02-27T06:21:00.839Z,100.00
2023-02-27T06:23:28.674Z,100.00
2023-02-27T06:25:56.464Z,100.00
2023-02-27T06:28:24.293Z,100.00
2023-02-27T06:30:54.932Z,100.00
2023-02-27T06:33:24.799Z,100.00
2023-02-27T06:35:53.072Z,100.00
2023-02-27T06:38:20.980Z,100.00
2023-02-27T06:40:48.665Z,100.00
2023-02-27T06:43:16.488Z,100.00
2023-02-27T06:45:44.329Z,100.00
2023-02-27T06:48:12.667Z,100.00
2023-02-27T06:50:42.510Z,100.00
2023-02-27T06:53:10.241Z,100.00
2023-02-27T06:55:38.479Z,100.00
2023-02-27T06:58:06.187Z,100.00
2023-02-27T07:00:33.933Z,100.00
2023-02-27T07:03:04.412Z,100.00
2023-02-27T07:05:32.585Z,100.00
2023-02-27T07:08:03.264Z,100.00
2023-02-27T07:10:31.575Z,100.00
2023-02-27T07:12:59.295Z,100.00
2023-02-27T07:15:27.056Z,100.00
2023-02-27T07:17:55.370Z,100.00
2023-02-27T07:20:23.669Z,100.00
2023-02-27T07:22:51.456Z,100.00
2023-02-27T07:25:20.569Z,100.00
2023-02-27T07:27:49.761Z,100.00
2023-02-27T07:30:18.450Z,100.00
2023-02-27T07:32:47.270Z,100.00
2023-02-27T07:35:15.219Z,100.00
2023-02-27T07:37:43.024Z,100.00
2023-02-27T07:40:11.895Z,100.00
2023-02-27T07:42:41.040Z,100.00
2023-02-27T07:45:09.866Z,100.00
2023-02-27T07:47:37.750Z,100.00
2023-02-27T07:50:06.028Z,100.00
2023-02-27T07:52:34.089Z,100.00
2023-02-27T07:55:02.031Z,100.00
2023-02-27T07:57:29.783Z,98.66
2023-02-27T07:59:59.465Z,96.92
2023-02-27T08:02:27.241Z,94.63
2023-02-27T08:04:55.099Z,96.09
2023-02-27T08:07:23.003Z,93.24
2023-02-27T08:09:50.722Z,92.16
2023-02-27T08:12:18.479Z,89.80
2023-02-27T08:14:46.311Z,87.76
2023-02-27T08:17:15.462Z,81.54
2023-02-27T08:19:43.251Z,64.79
2023-02-27T08:22:12.353Z,63.00
2023-02-27T08:24:40.605Z,60.63
2023-02-27T08:27:08.632Z,51.84
2023-02-27T08:29:36.351Z,48.71
2023-02-27T08:32:04.836Z,50.92
2023-02-27T08:34:33.890Z,51.74
2023-02-27T08:37:01.605Z,52.30
2023-02-27T08:39:29.266Z,50.95
2023-02-27T08:41:56.977Z,51.17
2023-02-27T08:44:24.621Z,51.91
2023-02-27T08:46:52.282Z,55.07
2023-02-27T08:49:21.669Z,56.39
2023-02-27T08:51:50.812Z,56.20
2023-02-27T08:54:18.891Z,56.43
2023-02-27T08:56:46.640Z,56.37
2023-02-27T08:59:14.443Z,57.75
2023-02-27T09:01:42.663Z,55.72
2023-02-27T09:04:11.668Z,56.15
2023-02-27T09:06:39.546Z,55.15
2023-02-27T09:09:09.395Z,55.21
2023-02-27T09:11:38.793Z,56.19
2023-02-27T09:14:06.901Z,57.04
2023-02-27T09:16:34.789Z,57.84
2023-02-27T09:19:02.447Z,56.56
2023-02-27T09:21:30.175Z,56.89
2023-02-27T09:24:02.595Z,57.12
2023-02-27T09:26:45.382Z,56.72
2023-02-27T09:29:13.645Z,55.25
2023-02-27T09:31:41.412Z,53.30
2023-02-27T09:34:09.230Z,53.94
2023-02-27T09:36:36.902Z,53.97
2023-02-27T09:39:05.107Z,53.28
2023-02-27T09:41:53.979Z,52.99
2023-02-27T09:44:44.806Z,52.89
2023-02-27T09:47:17.435Z,52.07
2023-02-27T09:49:55.192Z,52.08
2023-02-27T09:52:23.206Z,49.83
2023-02-27T09:54:54.862Z,49.50
2023-02-27T09:57:39.058Z,49.04
2023-02-27T10:00:13.059Z,49.79
2023-02-27T10:02:54.183Z,46.72
2023-02-27T10:05:29.615Z,46.98
2023-02-27T10:08:05.167Z,48.31
2023-02-27T10:10:39.260Z,48.48
2023-02-27T10:13:36.473Z,48.43
2023-02-27T10:16:06.041Z,49.61
2023-02-27T10:18:42.271Z,48.20
2023-02-27T10:21:15.155Z,51.49
2023-02-27T10:23:47.806Z,52.93
2023-02-27T10:26:20.779Z,50.21
2023-02-27T10:28:49.812Z,49.59
2023-02-27T10:31:21.529Z,45.04
2023-02-27T10:33:49.552Z,47.06
2023-02-27T10:36:33.168Z,48.32
2023-02-27T10:39:06.127Z,46.55
2023-02-27T10:41:36.032Z,45.14
2023-02-27T10:44:06.050Z,45.24
2023-02-27T10:46:38.100Z,47.53
2023-02-27T10:49:16.926Z,47.59
2023-02-27T10:51:47.136Z,49.88
2023-02-27T10:54:23.574Z,49.61
2023-02-27T10:56:53.754Z,52.14
2023-02-27T10:59:26.937Z,53.10
2023-02-27T11:01:57.110Z,53.15
2023-02-27T11:04:27.762Z,52.22
2023-02-27T11:06:56.103Z,51.73
2023-02-27T11:09:26.724Z,52.41
2023-02-27T11:11:55.424Z,52.62
2023-02-27T11:14:29.223Z,51.10
2023-02-27T11:16:58.558Z,50.75
2023-02-27T11:19:33.292Z,50.38
2023-02-27T11:22:07.088Z,51.01
2023-02-27T11:24:35.824Z,50.54
2023-02-27T11:27:06.646Z,49.41
2023-02-27T11:29:36.288Z,49.22
2023-02-27T11:32:08.176Z,48.53
2023-02-27T11:34:40.160Z,46.61
2023-02-27T11:37:19.668Z,46.46
2023-02-27T11:39:52.134Z,45.46
2023-02-27T11:42:27.020Z,45.39
2023-02-27T11:44:59.152Z,44.38
2023-02-27T11:47:31.719Z,43.90
2023-02-27T11:50:26.834Z,45.79
2023-02-27T11:52:59.174Z,46.66
2023-02-27T11:55:29.174Z,46.47
2023-02-27T11:58:03.393Z,45.94
2023-02-27T12:00:37.507Z,44.48
2023-02-27T12:03:13.810Z,40.96
2023-02-27T12:05:48.065Z,41.77
2023-02-27T12:08:21.835Z,42.03
2023-02-27T12:10:54.152Z,41.08
2023-02-27T12:13:26.653Z,42.37
2023-02-27T12:16:01.790Z,41.68
2023-02-27T12:18:35.111Z,41.38
2023-02-27T12:21:07.857Z,40.94
2023-02-27T12:23:40.977Z,42.09
2023-02-27T12:26:15.275Z,42.23
2023-02-27T12:28:52.169Z,42.80
2023-02-27T12:31:53.978Z,44.60
2023-02-27T12:34:30.011Z,43.72
2023-02-27T12:37:02.917Z,43.11
2023-02-27T12:39:31.078Z,41.63
2023-02-27T12:42:27.673Z,43.80
2023-02-27T12:45:23.545Z,45.18
2023-02-27T12:47:59.304Z,46.13
2023-02-27T12:50:36.554Z,43.03
2023-02-27T12:53:19.833Z,41.21
2023-02-27T12:55:54.186Z,42.24
2023-02-27T12:58:31.277Z,46.13
2023-02-27T13:01:01.911Z,46.50
2023-02-27T13:03:35.482Z,44.31
2023-02-27T13:06:15.370Z,42.68
2023-02-27T13:09:12.603Z,42.27
2023-02-27T13:11:51.570Z,43.08
2023-02-27T13:14:31.482Z,42.20
2023-02-27T13:17:04.041Z,42.78
2023-02-27T13:19:39.879Z,42.64
2023-02-27T13:22:18.986Z,43.37
2023-02-27T13:24:50.764Z,43.44
2023-02-27T13:27:24.982Z,44.07
2023-02-27T13:30:02.605Z,44.21
2023-02-27T13:32:43.931Z,44.77
2023-02-27T13:35:27.993Z,44.03
2023-02-27T13:37:58.957Z,43.71
2023-02-27T13:40:32.330Z,43.98
2023-02-27T13:43:02.970Z,44.44
2023-02-27T13:45:53.867Z,44.15
2023-02-27T13:48:43.718Z,43.16
2023-02-27T13:51:42.365Z,43.27
2023-02-27T13:54:21.260Z,42.86
2023-02-27T13:56:51.385Z,44.33
2023-02-27T13:59:23.724Z,44.26
2023-02-27T14:01:57.308Z,44.43
2023-02-27T14:04:28.556Z,44.00
2023-02-27T14:07:00.808Z,43.41
2023-02-27T14:09:35.886Z,44.54
2023-02-27T14:12:06.242Z,43.78
2023-02-27T14:14:44.247Z,44.65
2023-02-27T14:17:12.843Z,45.48
2023-02-27T14:19:56.776Z,45.22
2023-02-27T14:22:57.324Z,45.53
2023-02-27T14:25:34.359Z,45.71
2023-02-27T14:28:03.555Z,45.53
2023-02-27T14:30:45.196Z,45.43
2023-02-27T14:33:24.003Z,46.58
2023-02-27T14:36:01.488Z,46.83
2023-02-27T14:38:30.907Z,48.03
2023-02-27T14:41:24.998Z,47.65
2023-02-27T14:43:56.723Z,46.97
2023-02-27T14:46:29.281Z,47.10
2023-02-27T14:48:58.945Z,47.64
2023-02-27T14:51:30.338Z,46.97
2023-02-27T14:54:03.683Z,46.98
2023-02-27T14:56:33.949Z,46.84
2023-02-27T14:59:04.745Z,46.12
2023-02-27T15:01:37.191Z,46.48
2023-02-27T15:04:07.961Z,46.65
2023-02-27T15:06:38.833Z,46.64
2023-02-27T15:09:08.314Z,46.90
2023-02-27T15:11:48.740Z,47.21
2023-02-27T15:14:23.072Z,46.84
2023-02-27T15:16:55.885Z,47.87
2023-02-27T15:19:24.984Z,47.72
2023-02-27T15:21:54.654Z,47.83
2023-02-27T15:24:25.903Z,47.94
2023-02-27T15:26:58.094Z,48.57
2023-02-27T15:29:31.840Z,48.34
2023-02-27T15:31:59.574Z,48.42
2023-02-27T15:34:27.395Z,48.69
2023-02-27T15:36:57.321Z,49.43
2023-02-27T15:39:27.214Z,49.52
2023-02-27T15:41:57.968Z,49.38
2023-02-27T15:44:28.144Z,49.74
2023-02-27T15:46:57.628Z,49.18
2023-02-27T15:49:27.005Z,49.26
2023-02-27T15:52:02.461Z,49.22
2023-02-27T15:54:34.691Z,48.84
2023-02-27T15:57:06.698Z,48.69
2023-02-27T15:59:37.292Z,49.36
2023-02-27T16:02:07.081Z,49.40
2023-02-27T16:04:35.769Z,49.01
2023-02-27T16:07:07.397Z,49.12
2023-02-27T16:09:38.379Z,49.42
2023-02-27T16:12:34.258Z,50.01
2023-02-27T16:15:21.453Z,50.71
2023-02-27T16:18:01.521Z,51.29
2023-02-27T16:20:43.897Z,51.37
2023-02-27T16:23:23.063Z,51.53
2023-02-27T16:26:06.412Z,51.69
2023-02-27T16:28:43.331Z,51.86
2023-02-27T16:31:24.789Z,51.61
2023-02-27T16:33:53.310Z,51.73
2023-02-27T16:36:22.933Z,51.65
2023-02-27T16:38:51.852Z,51.88
2023-02-27T16:41:21.269Z,52.29
2023-02-27T16:43:50.925Z,52.19
2023-02-27T16:46:21.056Z,51.51
2023-02-27T16:48:54.358Z,51.73
2023-02-27T16:51:24.145Z,51.81
2023-02-27T16:53:52.638Z,51.66
2023-02-27T16:56:35.851Z,51.88
2023-02-27T16:59:06.892Z,51.43
2023-02-27T17:01:34.775Z,51.66
2023-02-27T17:04:03.969Z,51.51
2023-02-27T17:06:34.521Z,51.70
2023-02-27T17:09:02.182Z,51.38
2023-02-27T17:11:30.259Z,51.35
2023-02-27T17:13:57.912Z,51.28
2023-02-27T17:16:27.208Z,51.79
2023-02-27T17:18:55.226Z,51.85
2023-02-27T17:21:23.041Z,51.35
2023-02-27T17:23:50.669Z,51.62
2023-02-27T17:26:18.354Z,52.04
2023-02-27T17:28:46.090Z,52.11
2023-02-27T17:31:15.629Z,52.10
2023-02-27T17:33:44.611Z,52.03
2023-02-27T17:36:13.753Z,52.04
2023-02-27T17:38:41.421Z,52.45
2023-02-27T17:41:10.198Z,52.90
2023-02-27T17:43:38.370Z,52.57
2023-02-27T17:46:06.916Z,53.29
2023-02-27T17:48:35.575Z,52.93
2023-02-27T17:51:09.057Z,53.41
2023-02-27T17:53:37.311Z,53.21
2023-02-27T17:56:06.425Z,53.35
2023-02-27T17:58:34.936Z,53.50
2023-02-27T18:01:05.924Z,53.92
2023-02-27T18:03:34.847Z,53.68
2023-02-27T18:06:03.523Z,53.76
2023-02-27T18:08:33.261Z,54.04
2023-02-27T18:11:01.128Z,54.27
2023-02-27T18:13:29.433Z,53.82
2023-02-27T18:15:57.813Z,53.83
2023-02-27T18:18:25.726Z,54.15
2023-02-27T18:21:02.063Z,54.24
2023-02-27T18:23:30.209Z,53.95
2023-02-27T18:26:00.131Z,53.81
2023-02-27T18:28:29.022Z,54.05
2023-02-27T18:30:56.974Z,53.67
2023-02-27T18:33:24.910Z,53.80
2023-02-27T18:35:52.854Z,53.66
2023-02-27T18:38:20.647Z,53.52
2023-02-27T18:40:48.394Z,53.75
2023-02-27T18:43:17.486Z,54.20
2023-02-27T18:45:45.408Z,54.39
2023-02-27T18:48:13.062Z,54.59
2023-02-27T18:50:40.798Z,54.27
2023-02-27T18:53:08.439Z,54.00
2023-02-27T18:55:36.125Z,53.83
2023-02-27T18:58:06.054Z,53.67
2023-02-27T19:00:35.591Z,53.54
2023-02-27T19:03:03.301Z,53.77
2023-02-27T19:05:31.005Z,53.85
2023-02-27T19:07:58.902Z,54.25
2023-02-27T19:10:26.507Z,53.93
2023-02-27T19:12:54.563Z,54.75
2023-02-27T19:15:22.225Z,54.79
2023-02-27T19:17:51.202Z,54.66
2023-02-27T19:20:19.012Z,54.28
2023-02-27T19:22:46.967Z,54.74
2023-02-27T19:25:14.648Z,55.34
2023-02-27T19:27:44.661Z,54.75
2023-02-27T19:30:13.315Z,55.10
2023-02-27T19:32:41.485Z,55.04
2023-02-27T19:35:14.178Z,55.25
2023-02-27T19:37:42.118Z,55.33
2023-02-27T19:40:11.531Z,55.37
2023-02-27T19:42:39.333Z,55.62
2023-02-27T19:45:07.858Z,56.21
2023-02-27T19:47:37.742Z,56.09
2023-02-27T19:50:06.943Z,56.29
2023-02-27T19:52:36.894Z,56.39
2023-02-27T19:55:05.257Z,56.62
2023-02-27T19:57:34.836Z,57.26
2023-02-27T20:00:02.560Z,57.28
2023-02-27T20:02:30.300Z,58.11
2023-02-27T20:04:58.374Z,58.57
2023-02-27T20:07:28.894Z,58.82
2023-02-27T20:09:58.033Z,58.83
2023-02-27T20:12:26.018Z,59.54
2023-02-27T20:14:53.718Z,60.13
2023-02-27T20:17:21.535Z,60.11
2023-02-27T20:19:49.319Z,60.34
2023-02-27T20:22:17.067Z,60.84
2023-02-27T20:24:45.445Z,61.56
2023-02-27T20:27:15.567Z,61.73
2023-02-27T20:29:43.280Z,61.49
2023-02-27T20:32:10.997Z,61.55
2023-02-27T20:34:39.203Z,62.13
2023-02-27T20:37:06.878Z,62.33
2023-02-27T20:39:34.512Z,62.50
2023-02-27T20:42:02.306Z,62.97
2023-02-27T20:44:31.313Z,63.17
2023-02-27T20:46:58.957Z,64.34
2023-02-27T20:49:26.790Z,64.51
2023-02-27T20:51:54.502Z,64.91
2023-02-27T20:54:22.358Z,65.34
2023-02-27T20:56:52.897Z,65.39
2023-02-27T20:59:22.023Z,65.97
2023-02-27T21:01:52.442Z,67.59
2023-02-27T21:04:22.856Z,67.04
2023-02-27T21:06:50.861Z,67.98
2023-02-27T21:09:18.861Z,67.78
2023-02-27T21:11:46.717Z,68.38
2023-02-27T21:14:14.586Z,68.30
2023-02-27T21:16:42.254Z,69.05
2023-02-27T21:19:13.193Z,69.68
2023-02-27T21:21:41.001Z,70.25
2023-02-27T21:24:09.209Z,70.66
2023-02-27T21:26:39.282Z,71.76
2023-02-27T21:29:09.919Z,72.82
2023-02-27T21:31:38.917Z,72.94
2023-02-27T21:34:09.788Z,73.17
2023-02-27T21:36:42.555Z,73.96
2023-02-27T21:39:13.561Z,74.85
2023-02-27T21:41:41.840Z,75.06
2023-02-27T21:44:12.394Z,76.05
2023-02-27T21:46:40.280Z,76.89
2023-02-27T21:49:08.252Z,77.09
2023-02-27T21:51:41.044Z,77.50
2023-02-27T21:54:12.420Z,78.75
2023-02-27T21:56:40.967Z,79.34
2023-02-27T21:59:09.137Z,79.13
2023-02-27T22:01:37.513Z,79.46
2023-02-27T22:04:05.511Z,80.38
2023-02-27T22:06:35.206Z,80.97
2023-02-27T22:09:05.500Z,81.38
2023-02-27T22:11:35.864Z,81.73
2023-02-27T22:14:04.372Z,82.76
2023-02-27T22:16:32.178Z,83.22
2023-02-27T22:19:00.045Z,84.08
2023-02-27T22:21:29.024Z,84.28
2023-02-27T22:23:58.040Z,86.29
2023-02-27T22:26:28.336Z,85.78
2023-02-27T22:28:58.227Z,86.41
2023-02-27T22:31:27.617Z,88.04
2023-02-27T22:33:59.495Z,88.20
2023-02-27T22:36:30.137Z,89.13
2023-02-27T22:38:58.024Z,89.23
2023-02-27T22:41:28.513Z,89.63
2023-02-27T22:43:59.429Z,90.11
2023-02-27T22:46:29.788Z,90.49
2023-02-27T22:48:57.841Z,91.14
2023-02-27T22:51:28.438Z,91.54
2023-02-27T22:53:57.490Z,92.60
2023-02-27T22:56:25.901Z,93.36
2023-02-27T22:58:54.625Z,93.83
2023-02-27T23:01:26.327Z,95.40
2023-02-27T23:03:57.252Z,96.06
2023-02-27T23:06:27.465Z,96.70
2023-02-27T23:08:55.411Z,96.65
2023-02-27T23:11:23.624Z,96.44
2023-02-27T23:13:51.661Z,96.64
2023-02-27T23:16:19.446Z,96.71
2023-02-27T23:18:52.439Z,96.58
2023-02-27T23:21:23.987Z,97.22
2023-02-27T23:23:53.363Z,97.05
2023-02-27T23:26:21.396Z,97.73
2023-02-27T23:28:49.046Z,97.72
2023-02-27T23:31:17.015Z,98.53
2023-02-27T23:33:45.042Z,98.85
2023-02-27T23:36:15.333Z,99.52
2023-02-27T23:38:46.479Z,98.75
2023-02-27T23:41:16.776Z,98.66
2023-02-27T23:43:45.629Z,99.38
2023-02-27T23:46:16.044Z,99.71
2023-02-27T23:48:44.156Z,99.75
2023-02-27T23:51:13.765Z,99.59
2023-02-27T23:53:42.979Z,98.57
2023-02-27T23:56:15.750Z,99.79
2023-02-27T23:58:43.498Z,99.83
